createdAt,value
2023-01-27T00:04:26.081Z,-1
2023-01-27T00:09:18.078Z,-1
2023-01-27T00:14:09.223Z,-1.1
2023-01-27T00:19:01.244Z,-1
2023-01-27T00:28:44.917Z,-0.9
2023-01-27T00:33:52.365Z,-0.9
2023-01-27T00:48:42.259Z,-0.9
2023-01-27T01:03:45.880Z,-0.9
2023-01-27T01:19:07.596Z,-0.9
2023-01-27T01:24:14.760Z,-0.9
2023-01-27T01:29:36.880Z,-0.9
2023-01-27T01:35:00.258Z,-0.9
2023-01-27T01:40:23.547Z,-0.8
2023-01-27T01:45:47.939Z,-0.9
2023-01-27T01:51:10.302Z,-0.9
2023-01-27T01:56:32.107Z,-0.8
2023-01-27T02:01:57.329Z,-0.8
2023-01-27T02:07:19.810Z,-0.8
2023-01-27T02:12:41.409Z,-0.8
2023-01-27T02:18:05.164Z,-0.8
2023-01-27T02:23:11.829Z,-0.9
2023-01-27T02:28:34.926Z,-0.8
2023-01-27T02:33:30.549Z,-0.8
2023-01-27T02:38:38.461Z,-0.8
2023-01-27T02:44:00.890Z,-0.8
2023-01-27T02:49:24.193Z,-0.8
2023-01-27T02:54:46.292Z,-0.8
2023-01-27T03:00:07.783Z,-0.9
2023-01-27T03:05:31.370Z,-0.9
2023-01-27T03:10:53.779Z,-0.9
2023-01-27T03:21:24.024Z,-0.8
2023-01-27T03:26:46.797Z,-0.8
2023-01-27T03:31:54.496Z,-0.7
2023-01-27T03:37:17.688Z,-0.7
2023-01-27T03:42:39.960Z,-0.8
2023-01-27T03:48:02.678Z,-0.8
2023-01-27T03:53:25.572Z,-0.8
2023-01-27T03:58:47.983Z,-0.8
2023-01-27T04:04:10.564Z,-0.8
2023-01-27T04:09:33.152Z,-0.9
2023-01-27T04:14:56.520Z,-1
2023-01-27T04:25:28.753Z,-0.9
2023-01-27T04:31:02.475Z,-0.8
2023-01-27T04:36:14.159Z,-0.8
2023-01-27T04:41:38.108Z,-0.8
2023-01-27T04:46:45.710Z,-0.7
2023-01-27T04:51:52.339Z,-0.6
2023-01-27T04:56:59.819Z,-0.7
2023-01-27T05:02:07.391Z,-0.6
2023-01-27T05:07:14.927Z,-0.7
2023-01-27T05:12:23.555Z,-0.6
2023-01-27T05:17:30.529Z,-0.7
2023-01-27T05:22:38.526Z,-0.6
2023-01-27T05:28:01.921Z,-0.6
2023-01-27T05:33:24.757Z,-0.6
2023-01-27T05:38:47.273Z,-0.6
2023-01-27T05:43:54.853Z,-0.7
2023-01-27T05:49:18.014Z,-0.7
2023-01-27T05:54:42.269Z,-0.9
2023-01-27T06:15:15.040Z,-0.9
2023-01-27T06:20:06.873Z,-0.9
2023-01-27T06:25:29.270Z,-0.8
2023-01-27T06:31:05.055Z,-0.8
2023-01-27T06:36:28.452Z,-0.7
2023-01-27T06:41:51.236Z,-0.6
2023-01-27T06:47:14.612Z,-0.4
2023-01-27T06:52:37.457Z,-0.5
2023-01-27T06:58:02.516Z,-0.3
2023-01-27T07:03:26.297Z,-0.2
2023-01-27T07:08:50.844Z,-0.3
2023-01-27T07:14:26.997Z,-0.3
2023-01-27T07:19:51.722Z,-0.3
2023-01-27T07:24:59.193Z,-0.1
2023-01-27T07:30:32.401Z,-0.2
2023-01-27T07:35:56.180Z,-0.1
2023-01-27T07:41:21.766Z,-0.1
2023-01-27T07:46:45.414Z,0.1
2023-01-27T07:51:52.400Z,0.2
2023-01-27T07:56:59.800Z,0.2
2023-01-27T08:02:22.686Z,0.2
2023-01-27T08:08:01.812Z,0.3
2023-01-27T08:13:27.906Z,0.3
2023-01-27T08:18:50.382Z,0.4
2023-01-27T08:24:14.026Z,0.5
2023-01-27T08:29:36.804Z,0.3
2023-01-27T08:34:59.559Z,0.1
2023-01-27T08:40:25.023Z,0
2023-01-27T08:45:47.676Z,-0.2
2023-01-27T08:51:10.328Z,-0.2
2023-01-27T08:56:33.243Z,-0.1
2023-01-27T09:01:56.257Z,0.1
2023-01-27T09:07:19.504Z,0.2
2023-01-27T09:12:52.286Z,0.1
2023-01-27T09:18:15.312Z,0.3
2023-01-27T09:23:37.556Z,0.4
2023-01-27T09:29:08.910Z,0.3
2023-01-27T09:34:33.127Z,0.4
2023-01-27T09:39:55.725Z,0.4
2023-01-27T09:45:18.768Z,0.5
2023-01-27T09:50:44.227Z,0.4
2023-01-27T09:56:14.863Z,0.3
2023-01-27T10:01:37.698Z,0.3
2023-01-27T10:07:00.984Z,0.4
2023-01-27T10:12:24.097Z,0.4
2023-01-27T10:17:47.359Z,0.4
2023-01-27T10:23:09.833Z,0.4
2023-01-27T10:28:31.882Z,0.4
2023-01-27T10:33:55.437Z,0.3
2023-01-27T10:39:18.337Z,0.3
2023-01-27T10:44:41.056Z,0.4
2023-01-27T10:50:04.487Z,0.3
2023-01-27T10:55:26.766Z,0.4
2023-01-27T11:01:52.856Z,0.4
2023-01-27T11:07:15.940Z,0.3
2023-01-27T11:12:38.525Z,0.3
2023-01-27T11:18:01.305Z,0.3
2023-01-27T11:23:36.054Z,0.3
2023-01-27T11:29:00.597Z,0.4
2023-01-27T11:34:23.353Z,0.4
2023-01-27T11:40:00.786Z,0.3
2023-01-27T11:45:23.200Z,0.3
2023-01-27T11:50:45.926Z,0.5
2023-01-27T11:56:08.584Z,0.4
2023-01-27T12:01:32.508Z,0.4
2023-01-27T12:06:55.583Z,0.3
2023-01-27T12:12:21.883Z,0.3
2023-01-27T12:17:44.547Z,0.3
2023-01-27T12:22:52.115Z,0.4
2023-01-27T12:28:14.996Z,0.4
2023-01-27T12:33:38.675Z,0.3
2023-01-27T12:39:01.788Z,0.4
2023-01-27T12:44:24.847Z,0.5
2023-01-27T12:49:49.479Z,0.4
2023-01-27T12:55:11.962Z,0.4
2023-01-27T13:00:37.515Z,0.4
2023-01-27T13:06:00.903Z,0.4
2023-01-27T13:11:23.669Z,0.5
2023-01-27T13:16:46.829Z,0.6
2023-01-27T13:21:54.025Z,0.9
2023-01-27T13:27:01.123Z,0.9
2023-01-27T13:32:21.587Z,0.8
2023-01-27T13:37:43.833Z,0.8
2023-01-27T13:42:51.471Z,0.6
2023-01-27T13:48:14.215Z,0.6
2023-01-27T13:53:24.705Z,0.6
2023-01-27T13:58:32.196Z,0.6
2023-01-27T14:03:55.697Z,0.4
2023-01-27T14:09:03.418Z,0.4
2023-01-27T14:14:27.157Z,0.4
2023-01-27T14:19:48.227Z,0.4
2023-01-27T14:25:11.437Z,0.4
2023-01-27T14:30:34.218Z,0.4
2023-01-27T14:35:57.570Z,0.4
2023-01-27T14:41:20.503Z,0.3
2023-01-27T14:47:05.836Z,0.3
2023-01-27T14:52:28.826Z,0.3
2023-01-27T14:57:52.111Z,0.2
2023-01-27T15:03:14.823Z,0.1
2023-01-27T15:08:39.219Z,0.1
2023-01-27T15:13:46.200Z,0.1
2023-01-27T15:19:08.491Z,0.1
2023-01-27T15:24:31.350Z,0.1
2023-01-27T15:29:54.342Z,0.1
2023-01-27T15:35:18.719Z,0.1
2023-01-27T15:40:38.172Z,0.1
2023-01-27T15:46:03.810Z,0.1
2023-01-27T15:51:26.278Z,0.2
2023-01-27T15:56:51.435Z,0.2
2023-01-27T16:02:17.935Z,0.2
2023-01-27T16:07:42.088Z,0.2
2023-01-27T16:13:05.286Z,0.1
2023-01-27T16:18:12.523Z,0.1
2023-01-27T16:23:35.334Z,0.1
2023-01-27T16:28:58.926Z,0.1
2023-01-27T16:34:21.849Z,0.1
2023-01-27T16:39:44.858Z,0.1
2023-01-27T16:45:07.319Z,0.1
2023-01-27T16:50:43.271Z,0.1
2023-01-27T16:56:20.158Z,0.1
2023-01-27T17:01:56.410Z,0.1
2023-01-27T17:07:30.432Z,0.1
2023-01-27T17:13:09.644Z,0.1
2023-01-27T17:18:56.818Z,0.1
2023-01-27T17:24:20.358Z,0.1
2023-01-27T17:29:45.020Z,0.1
2023-01-27T17:35:18.787Z,0.1
2023-01-27T17:40:50.323Z,0.1
2023-01-27T17:46:17.587Z,0.1
2023-01-27T17:51:46.778Z,0.1
2023-01-27T17:57:19.682Z,0.1
2023-01-27T18:02:32.924Z,0.1
2023-01-27T18:07:42.532Z,0.1
2023-01-27T18:13:10.997Z,0.1
2023-01-27T18:18:37.666Z,0.1
2023-01-27T18:24:08.799Z,0.1
2023-01-27T18:29:38.896Z,0.1
2023-01-27T18:34:53.553Z,0.1
2023-01-27T18:40:08.877Z,0.1
2023-01-27T18:45:47.813Z,0.1
2023-01-27T18:51:28.747Z,0.1
2023-01-27T18:57:10.436Z,0.1
2023-01-27T19:02:48.870Z,0
2023-01-27T19:08:24.345Z,0.1
2023-01-27T19:13:54.879Z,0
2023-01-27T19:19:21.092Z,0
2023-01-27T19:24:51.902Z,0.1
2023-01-27T19:29:52.717Z,0.1
2023-01-27T19:35:06.944Z,0.1
2023-01-27T19:40:35.599Z,0.1
2023-01-27T19:46:06.748Z,0
2023-01-27T19:51:34.156Z,0
2023-01-27T19:57:01.004Z,-0.1
2023-01-27T20:02:28.349Z,-0.1
2023-01-27T20:07:58.096Z,-0.1
2023-01-27T20:13:27.310Z,-0.1
2023-01-27T20:18:57.085Z,-0.1
2023-01-27T20:24:21.883Z,-0.1
2023-01-27T20:29:49.307Z,0
2023-01-27T20:35:15.501Z,-0.1
2023-01-27T20:40:23.910Z,-0.1
2023-01-27T20:45:45.096Z,-0.1
2023-01-27T20:51:08.474Z,-0.1
2023-01-27T20:56:31.288Z,0
2023-01-27T21:01:54.180Z,0
2023-01-27T21:07:17.659Z,0
2023-01-27T21:12:40.347Z,-0.1
2023-01-27T21:18:03.708Z,-0.1
2023-01-27T21:23:11.541Z,-0.1
2023-01-27T21:28:37.152Z,0
2023-01-27T21:33:45.188Z,0
2023-01-27T21:38:52.406Z,-0.1
2023-01-27T21:44:15.027Z,-0.1
2023-01-27T21:49:38.343Z,-0.1
2023-01-27T21:55:00.794Z,-0.1
2023-01-27T22:00:23.597Z,-0.1
2023-01-27T22:05:49.358Z,-0.1
2023-01-27T22:11:12.575Z,-0.1
2023-01-27T22:16:35.419Z,-0.1
2023-01-27T22:21:42.339Z,-0.1
2023-01-27T22:26:48.517Z,-0.1
2023-01-27T22:32:10.215Z,-0.1
2023-01-27T22:37:34.038Z,-0.2
2023-01-27T22:42:56.779Z,-0.1
2023-01-27T22:48:19.312Z,-0.2
2023-01-27T22:53:42.204Z,-0.2
2023-01-27T22:59:04.304Z,-0.2
2023-01-27T23:04:26.770Z,-0.2
2023-01-27T23:09:49.865Z,-0.2
2023-01-27T23:15:12.959Z,-0.2
2023-01-27T23:20:35.449Z,-0.3
2023-01-27T23:25:58.160Z,-0.3
2023-01-27T23:31:27.386Z,-0.3
2023-01-27T23:36:50.472Z,-0.3
2023-01-27T23:42:31.425Z,-0.3
2023-01-27T23:47:53.640Z,-0.3
2023-01-27T23:53:16.172Z,-0.3
2023-01-27T23:58:38.899Z,-0.3
